sensor_id;sensor_type;location;lat;lon;timestamp;P1;durP1;ratioP1;P2;durP2;ratioP2
66870;SDS011;53780;44.998;9.926;2023-02-28T00:00:56;15.20;;;5.82;;
66870;SDS011;53780;44.998;9.926;2023-02-28T00:04:00;18.17;;;5.97;;
66870;SDS011;53780;44.998;9.926;2023-02-28T00:07:04;16.45;;;6.28;;
66870;SDS011;53780;44.998;9.926;2023-02-28T00:10:09;15.77;;;6.40;;
66870;SDS011;53780;44.998;9.926;2023-02-28T00:13:15;15.52;;;6.30;;
66870;SDS011;53780;44.998;9.926;2023-02-28T00:16:21;17.58;;;6.53;;
66870;SDS011;53780;44.998;9.926;2023-02-28T00:19:25;16.85;;;6.70;;
66870;SDS011;53780;44.998;9.926;2023-02-28T00:22:29;13.10;;;5.82;;
66870;SDS011;53780;44.998;9.926;2023-02-28T00:25:33;18.58;;;6.28;;
66870;SDS011;53780;44.998;9.926;2023-02-28T00:28:44;14.52;;;6.15;;
66870;SDS011;53780;44.998;9.926;2023-02-28T00:31:58;15.52;;;6.03;;
66870;SDS011;53780;44.998;9.926;2023-02-28T00:35:02;16.67;;;5.90;;
66870;SDS011;53780;44.998;9.926;2023-02-28T00:38:06;12.82;;;6.18;;
66870;SDS011;53780;44.998;9.926;2023-02-28T00:41:12;13.75;;;6.22;;
66870;SDS011;53780;44.998;9.926;2023-02-28T00:44:15;12.20;;;5.63;;
66870;SDS011;53780;44.998;9.926;2023-02-28T00:47:19;15.02;;;6.00;;
66870;SDS011;53780;44.998;9.926;2023-02-28T00:50:23;13.95;;;5.63;;
66870;SDS011;53780;44.998;9.926;2023-02-28T00:53:27;14.52;;;5.78;;
66870;SDS011;53780;44.998;9.926;2023-02-28T00:56:34;14.52;;;6.25;;
66870;SDS011;53780;44.998;9.926;2023-02-28T00:59:38;13.70;;;5.80;;
66870;SDS011;53780;44.998;9.926;2023-02-28T01:02:43;12.50;;;5.80;;
66870;SDS011;53780;44.998;9.926;2023-02-28T01:05:47;14.60;;;5.75;;
66870;SDS011;53780;44.998;9.926;2023-02-28T01:08:51;15.18;;;6.00;;
66870;SDS011;53780;44.998;9.926;2023-02-28T01:11:54;14.95;;;5.90;;
66870;SDS011;53780;44.998;9.926;2023-02-28T01:14:58;14.60;;;5.80;;
66870;SDS011;53780;44.998;9.926;2023-02-28T01:18:02;13.15;;;6.03;;
66870;SDS011;53780;44.998;9.926;2023-02-28T01:21:10;13.63;;;6.07;;
66870;SDS011;53780;44.998;9.926;2023-02-28T01:24:17;18.33;;;6.28;;
66870;SDS011;53780;44.998;9.926;2023-02-28T01:27:22;16.08;;;6.18;;
66870;SDS011;53780;44.998;9.926;2023-02-28T01:30:27;16.55;;;6.15;;
66870;SDS011;53780;44.998;9.926;2023-02-28T01:33:31;14.60;;;6.05;;
66870;SDS011;53780;44.998;9.926;2023-02-28T01:36:37;15.57;;;6.07;;
66870;SDS011;53780;44.998;9.926;2023-02-28T01:39:40;14.95;;;6.47;;
66870;SDS011;53780;44.998;9.926;2023-02-28T01:42:45;16.08;;;5.85;;
66870;SDS011;53780;44.998;9.926;2023-02-28T01:45:49;15.52;;;6.18;;
66870;SDS011;53780;44.998;9.926;2023-02-28T01:52:00;16.13;;;6.25;;
66870;SDS011;53780;44.998;9.926;2023-02-28T01:55:05;14.50;;;6.18;;
66870;SDS011;53780;44.998;9.926;2023-02-28T01:58:10;14.52;;;6.18;;
66870;SDS011;53780;44.998;9.926;2023-02-28T02:01:14;14.82;;;6.45;;
66870;SDS011;53780;44.998;9.926;2023-02-28T02:04:25;15.75;;;6.18;;
66870;SDS011;53780;44.998;9.926;2023-02-28T02:07:36;16.50;;;6.30;;
66870;SDS011;53780;44.998;9.926;2023-02-28T02:10:44;17.40;;;5.82;;
66870;SDS011;53780;44.998;9.926;2023-02-28T02:17:39;12.48;;;5.50;;
66870;SDS011;53780;44.998;9.926;2023-02-28T02:44:55;17.38;;;6.30;;
66870;SDS011;53780;44.998;9.926;2023-02-28T02:48:05;15.32;;;6.20;;
66870;SDS011;53780;44.998;9.926;2023-02-28T02:51:13;15.93;;;6.45;;
66870;SDS011;53780;44.998;9.926;2023-02-28T02:54:20;15.43;;;6.15;;
66870;SDS011;53780;44.998;9.926;2023-02-28T02:57:33;18.35;;;5.85;;
66870;SDS011;53780;44.998;9.926;2023-02-28T03:00:43;17.05;;;6.32;;
66870;SDS011;53780;44.998;9.926;2023-02-28T03:03:58;14.00;;;6.28;;
66870;SDS011;53780;44.998;9.926;2023-02-28T03:07:09;12.43;;;5.90;;
66870;SDS011;53780;44.998;9.926;2023-02-28T03:10:27;13.95;;;6.18;;
66870;SDS011;53780;44.998;9.926;2023-02-28T03:13:55;14.38;;;6.00;;
66870;SDS011;53780;44.998;9.926;2023-02-28T03:24:08;13.57;;;6.22;;
66870;SDS011;53780;44.998;9.926;2023-02-28T03:30:36;16.17;;;6.13;;
66870;SDS011;53780;44.998;9.926;2023-02-28T03:34:04;15.15;;;6.60;;
66870;SDS011;53780;44.998;9.926;2023-02-28T03:37:15;14.95;;;6.43;;
66870;SDS011;53780;44.998;9.926;2023-02-28T03:40:25;15.15;;;6.40;;
66870;SDS011;53780;44.998;9.926;2023-02-28T03:43:35;15.88;;;6.18;;
66870;SDS011;53780;44.998;9.926;2023-02-28T03:46:44;15.77;;;6.70;;
66870;SDS011;53780;44.998;9.926;2023-02-28T03:50:16;13.80;;;5.88;;
66870;SDS011;53780;44.998;9.926;2023-02-28T03:53:36;12.73;;;5.47;;
66870;SDS011;53780;44.998;9.926;2023-02-28T03:59:58;13.23;;;5.72;;
66870;SDS011;53780;44.998;9.926;2023-02-28T04:03:05;12.38;;;5.68;;
66870;SDS011;53780;44.998;9.926;2023-02-28T04:06:13;16.95;;;7.10;;
66870;SDS011;53780;44.998;9.926;2023-02-28T04:09:20;17.10;;;7.38;;
66870;SDS011;53780;44.998;9.926;2023-02-28T04:12:24;16.98;;;7.13;;
66870;SDS011;53780;44.998;9.926;2023-02-28T04:15:28;15.60;;;6.85;;
66870;SDS011;53780;44.998;9.926;2023-02-28T04:18:32;14.57;;;6.47;;
66870;SDS011;53780;44.998;9.926;2023-02-28T04:21:37;12.93;;;6.40;;
66870;SDS011;53780;44.998;9.926;2023-02-28T04:24:43;11.48;;;5.50;;
66870;SDS011;53780;44.998;9.926;2023-02-28T04:27:47;12.77;;;5.22;;
66870;SDS011;53780;44.998;9.926;2023-02-28T04:31:01;13.45;;;5.78;;
66870;SDS011;53780;44.998;9.926;2023-02-28T04:34:07;14.50;;;5.93;;
66870;SDS011;53780;44.998;9.926;2023-02-28T04:37:11;13.85;;;6.55;;
66870;SDS011;53780;44.998;9.926;2023-02-28T04:40:14;13.23;;;5.82;;
66870;SDS011;53780;44.998;9.926;2023-02-28T04:43:18;12.65;;;5.45;;
66870;SDS011;53780;44.998;9.926;2023-02-28T04:46:22;12.07;;;5.63;;
66870;SDS011;53780;44.998;9.926;2023-02-28T04:49:27;13.80;;;5.63;;
66870;SDS011;53780;44.998;9.926;2023-02-28T04:52:30;14.40;;;6.28;;
66870;SDS011;53780;44.998;9.926;2023-02-28T04:55:34;13.07;;;6.45;;
66870;SDS011;53780;44.998;9.926;2023-02-28T04:58:38;13.63;;;5.70;;
66870;SDS011;53780;44.998;9.926;2023-02-28T05:01:45;13.40;;;6.03;;
66870;SDS011;53780;44.998;9.926;2023-02-28T05:04:51;12.82;;;5.97;;
66870;SDS011;53780;44.998;9.926;2023-02-28T05:07:55;16.55;;;6.00;;
66870;SDS011;53780;44.998;9.926;2023-02-28T05:11:00;17.33;;;6.20;;
66870;SDS011;53780;44.998;9.926;2023-02-28T05:14:11;16.17;;;6.50;;
66870;SDS011;53780;44.998;9.926;2023-02-28T05:17:16;16.15;;;6.53;;
66870;SDS011;53780;44.998;9.926;2023-02-28T05:20:20;17.05;;;7.65;;
66870;SDS011;53780;44.998;9.926;2023-02-28T05:23:25;18.52;;;7.57;;
66870;SDS011;53780;44.998;9.926;2023-02-28T05:26:29;15.32;;;6.93;;
66870;SDS011;53780;44.998;9.926;2023-02-28T05:29:33;17.55;;;7.47;;
66870;SDS011;53780;44.998;9.926;2023-02-28T05:32:49;15.95;;;6.65;;
66870;SDS011;53780;44.998;9.926;2023-02-28T05:35:53;14.00;;;6.47;;
66870;SDS011;53780;44.998;9.926;2023-02-28T05:38:57;15.63;;;6.93;;
66870;SDS011;53780;44.998;9.926;2023-02-28T05:42:01;14.63;;;6.72;;
66870;SDS011;53780;44.998;9.926;2023-02-28T05:45:05;16.33;;;7.10;;
66870;SDS011;53780;44.998;9.926;2023-02-28T05:48:10;14.57;;;6.00;;
66870;SDS011;53780;44.998;9.926;2023-02-28T05:51:14;14.05;;;6.25;;
66870;SDS011;53780;44.998;9.926;2023-02-28T05:54:19;15.98;;;6.32;;
66870;SDS011;53780;44.998;9.926;2023-02-28T05:57:22;13.80;;;6.28;;
66870;SDS011;53780;44.998;9.926;2023-02-28T06:00:27;14.85;;;6.22;;
66870;SDS011;53780;44.998;9.926;2023-02-28T06:03:30;14.82;;;6.13;;
66870;SDS011;53780;44.998;9.926;2023-02-28T06:06:35;12.65;;;6.38;;
66870;SDS011;53780;44.998;9.926;2023-02-28T06:09:40;13.13;;;6.32;;
66870;SDS011;53780;44.998;9.926;2023-02-28T06:12:44;13.98;;;6.30;;
66870;SDS011;53780;44.998;9.926;2023-02-28T06:15:48;13.70;;;6.57;;
66870;SDS011;53780;44.998;9.926;2023-02-28T06:18:52;12.63;;;6.00;;
66870;SDS011;53780;44.998;9.926;2023-02-28T06:21:59;14.82;;;6.45;;
66870;SDS011;53780;44.998;9.926;2023-02-28T06:25:03;17.45;;;6.85;;
66870;SDS011;53780;44.998;9.926;2023-02-28T06:28:08;14.05;;;6.13;;
66870;SDS011;53780;44.998;9.926;2023-02-28T06:31:13;13.57;;;6.00;;
66870;SDS011;53780;44.998;9.926;2023-02-28T06:34:19;14.70;;;6.40;;
66870;SDS011;53780;44.998;9.926;2023-02-28T06:37:23;13.13;;;6.35;;
66870;SDS011;53780;44.998;9.926;2023-02-28T06:40:30;15.77;;;5.97;;
66870;SDS011;53780;44.998;9.926;2023-02-28T06:43:38;14.65;;;6.78;;
66870;SDS011;53780;44.998;9.926;2023-02-28T06:46:44;13.55;;;6.70;;
66870;SDS011;53780;44.998;9.926;2023-02-28T06:49:48;15.10;;;7.10;;
66870;SDS011;53780;44.998;9.926;2023-02-28T06:52:53;16.40;;;6.57;;
66870;SDS011;53780;44.998;9.926;2023-02-28T06:55:57;14.27;;;6.30;;
66870;SDS011;53780;44.998;9.926;2023-02-28T06:59:01;13.50;;;6.30;;
66870;SDS011;53780;44.998;9.926;2023-02-28T07:02:07;14.38;;;6.45;;
66870;SDS011;53780;44.998;9.926;2023-02-28T07:05:11;13.23;;;6.20;;
66870;SDS011;53780;44.998;9.926;2023-02-28T07:08:15;14.63;;;6.55;;
66870;SDS011;53780;44.998;9.926;2023-02-28T07:11:19;13.73;;;5.78;;
66870;SDS011;53780;44.998;9.926;2023-02-28T07:14:27;12.13;;;6.40;;
66870;SDS011;53780;44.998;9.926;2023-02-28T07:17:31;16.45;;;7.45;;
66870;SDS011;53780;44.998;9.926;2023-02-28T07:20:35;15.25;;;6.68;;
66870;SDS011;53780;44.998;9.926;2023-02-28T07:23:40;16.45;;;7.43;;
66870;SDS011;53780;44.998;9.926;2023-02-28T07:26:45;17.67;;;7.63;;
66870;SDS011;53780;44.998;9.926;2023-02-28T07:29:49;14.75;;;7.70;;
66870;SDS011;53780;44.998;9.926;2023-02-28T07:32:54;15.02;;;7.03;;
66870;SDS011;53780;44.998;9.926;2023-02-28T07:36:00;15.98;;;7.15;;
66870;SDS011;53780;44.998;9.926;2023-02-28T07:39:07;16.73;;;8.10;;
66870;SDS011;53780;44.998;9.926;2023-02-28T07:42:12;14.60;;;7.05;;
66870;SDS011;53780;44.998;9.926;2023-02-28T07:45:17;15.50;;;7.43;;
66870;SDS011;53780;44.998;9.926;2023-02-28T07:48:21;17.98;;;7.65;;
66870;SDS011;53780;44.998;9.926;2023-02-28T07:51:25;15.15;;;6.93;;
66870;SDS011;53780;44.998;9.926;2023-02-28T07:54:29;16.17;;;7.35;;
66870;SDS011;53780;44.998;9.926;2023-02-28T07:57:34;18.15;;;6.95;;
66870;SDS011;53780;44.998;9.926;2023-02-28T08:00:38;16.80;;;7.30;;
66870;SDS011;53780;44.998;9.926;2023-02-28T08:03:41;15.77;;;7.18;;
66870;SDS011;53780;44.998;9.926;2023-02-28T08:06:45;16.42;;;7.40;;
66870;SDS011;53780;44.998;9.926;2023-02-28T08:09:50;15.55;;;6.82;;
66870;SDS011;53780;44.998;9.926;2023-02-28T08:12:53;15.90;;;7.65;;
66870;SDS011;53780;44.998;9.926;2023-02-28T08:15:57;15.27;;;7.80;;
66870;SDS011;53780;44.998;9.926;2023-02-28T08:19:01;18.08;;;7.82;;
66870;SDS011;53780;44.998;9.926;2023-02-28T08:22:05;16.63;;;7.63;;
66870;SDS011;53780;44.998;9.926;2023-02-28T08:25:09;15.05;;;7.28;;
66870;SDS011;53780;44.998;9.926;2023-02-28T08:28:13;15.73;;;7.40;;
66870;SDS011;53780;44.998;9.926;2023-02-28T08:31:17;15.32;;;7.55;;
66870;SDS011;53780;44.998;9.926;2023-02-28T08:34:22;14.82;;;6.70;;
66870;SDS011;53780;44.998;9.926;2023-02-28T08:37:26;16.45;;;7.72;;
66870;SDS011;53780;44.998;9.926;2023-02-28T08:40:30;17.37;;;10.30;;
66870;SDS011;53780;44.998;9.926;2023-02-28T08:43:36;19.70;;;9.00;;
66870;SDS011;53780;44.998;9.926;2023-02-28T08:46:41;16.23;;;7.80;;
66870;SDS011;53780;44.998;9.926;2023-02-28T08:49:44;18.60;;;9.02;;
66870;SDS011;53780;44.998;9.926;2023-02-28T08:52:48;16.20;;;7.55;;
66870;SDS011;53780;44.998;9.926;2023-02-28T08:55:59;14.13;;;6.97;;
66870;SDS011;53780;44.998;9.926;2023-02-28T08:59:04;14.48;;;7.30;;
66870;SDS011;53780;44.998;9.926;2023-02-28T09:02:09;13.68;;;6.20;;
66870;SDS011;53780;44.998;9.926;2023-02-28T09:05:16;14.07;;;7.25;;
66870;SDS011;53780;44.998;9.926;2023-02-28T09:08:20;18.42;;;7.78;;
66870;SDS011;53780;44.998;9.926;2023-02-28T09:11:24;14.37;;;7.10;;
66870;SDS011;53780;44.998;9.926;2023-02-28T09:14:28;15.25;;;7.47;;
66870;SDS011;53780;44.998;9.926;2023-02-28T09:17:32;16.45;;;7.43;;
66870;SDS011;53780;44.998;9.926;2023-02-28T09:20:39;13.15;;;7.20;;
66870;SDS011;53780;44.998;9.926;2023-02-28T09:23:45;14.95;;;8.00;;
66870;SDS011;53780;44.998;9.926;2023-02-28T09:26:51;13.83;;;7.40;;
66870;SDS011;53780;44.998;9.926;2023-02-28T09:29:55;14.98;;;7.18;;
66870;SDS011;53780;44.998;9.926;2023-02-28T09:32:59;15.02;;;7.10;;
66870;SDS011;53780;44.998;9.926;2023-02-28T09:36:03;13.68;;;7.30;;
66870;SDS011;53780;44.998;9.926;2023-02-28T09:39:07;16.27;;;6.90;;
66870;SDS011;53780;44.998;9.926;2023-02-28T09:42:13;13.80;;;7.47;;
66870;SDS011;53780;44.998;9.926;2023-02-28T09:48:32;14.07;;;7.20;;
66870;SDS011;53780;44.998;9.926;2023-02-28T09:54:51;13.48;;;7.22;;
66870;SDS011;53780;44.998;9.926;2023-02-28T09:57:55;14.17;;;7.60;;
66870;SDS011;53780;44.998;9.926;2023-02-28T10:01:50;16.38;;;7.05;;
66870;SDS011;53780;44.998;9.926;2023-02-28T10:11:06;13.32;;;6.90;;
66870;SDS011;53780;44.998;9.926;2023-02-28T10:14:14;15.77;;;7.17;;
66870;SDS011;53780;44.998;9.926;2023-02-28T10:17:22;14.57;;;6.90;;
66870;SDS011;53780;44.998;9.926;2023-02-28T10:20:32;14.82;;;7.13;;
66870;SDS011;53780;44.998;9.926;2023-02-28T10:23:38;16.80;;;7.30;;
66870;SDS011;53780;44.998;9.926;2023-02-28T10:26:43;13.07;;;6.55;;
66870;SDS011;53780;44.998;9.926;2023-02-28T10:29:52;14.37;;;7.17;;
66870;SDS011;53780;44.998;9.926;2023-02-28T10:32:57;12.68;;;6.93;;
66870;SDS011;53780;44.998;9.926;2023-02-28T10:36:02;14.73;;;6.78;;
66870;SDS011;53780;44.998;9.926;2023-02-28T10:42:42;16.40;;;8.00;;
66870;SDS011;53780;44.998;9.926;2023-02-28T10:49:19;14.55;;;7.07;;
66870;SDS011;53780;44.998;9.926;2023-02-28T10:52:35;13.63;;;6.43;;
66870;SDS011;53780;44.998;9.926;2023-02-28T10:55:42;13.82;;;6.57;;
66870;SDS011;53780;44.998;9.926;2023-02-28T11:01:59;14.13;;;7.20;;
66870;SDS011;53780;44.998;9.926;2023-02-28T11:11:56;14.82;;;6.93;;
66870;SDS011;53780;44.998;9.926;2023-02-28T11:15:02;13.90;;;6.70;;
66870;SDS011;53780;44.998;9.926;2023-02-28T11:21:27;13.52;;;6.80;;
66870;SDS011;53780;44.998;9.926;2023-02-28T11:24:43;12.93;;;6.90;;
66870;SDS011;53780;44.998;9.926;2023-02-28T11:27:59;13.85;;;7.38;;
66870;SDS011;53780;44.998;9.926;2023-02-28T11:34:26;14.70;;;6.70;;
66870;SDS011;53780;44.998;9.926;2023-02-28T11:37:31;14.90;;;6.95;;
66870;SDS011;53780;44.998;9.926;2023-02-28T11:40:42;14.20;;;7.10;;
66870;SDS011;53780;44.998;9.926;2023-02-28T11:46:57;17.63;;;7.88;;
66870;SDS011;53780;44.998;9.926;2023-02-28T11:53:35;16.35;;;7.65;;
66870;SDS011;53780;44.998;9.926;2023-02-28T11:59:55;13.82;;;6.85;;
66870;SDS011;53780;44.998;9.926;2023-02-28T12:06:48;14.97;;;7.63;;
66870;SDS011;53780;44.998;9.926;2023-02-28T12:13:38;16.13;;;7.40;;
66870;SDS011;53780;44.998;9.926;2023-02-28T12:24:17;16.03;;;7.40;;
66870;SDS011;53780;44.998;9.926;2023-02-28T12:27:30;15.15;;;7.32;;
66870;SDS011;53780;44.998;9.926;2023-02-28T12:30:39;16.48;;;8.18;;
66870;SDS011;53780;44.998;9.926;2023-02-28T12:33:53;15.55;;;7.18;;
66870;SDS011;53780;44.998;9.926;2023-02-28T12:37:04;32.90;;;11.05;;
66870;SDS011;53780;44.998;9.926;2023-02-28T12:40:14;16.50;;;7.63;;
66870;SDS011;53780;44.998;9.926;2023-02-28T12:43:24;14.60;;;7.78;;
66870;SDS011;53780;44.998;9.926;2023-02-28T12:46:33;16.80;;;8.18;;
66870;SDS011;53780;44.998;9.926;2023-02-28T12:49:52;16.10;;;7.40;;
66870;SDS011;53780;44.998;9.926;2023-02-28T12:53:03;17.23;;;8.13;;
66870;SDS011;53780;44.998;9.926;2023-02-28T12:56:21;15.43;;;7.63;;
66870;SDS011;53780;44.998;9.926;2023-02-28T12:59:54;14.68;;;7.30;;
66870;SDS011;53780;44.998;9.926;2023-02-28T13:06:41;16.63;;;8.20;;
66870;SDS011;53780;44.998;9.926;2023-02-28T13:10:02;14.43;;;7.57;;
66870;SDS011;53780;44.998;9.926;2023-02-28T13:13:14;17.53;;;7.77;;
66870;SDS011;53780;44.998;9.926;2023-02-28T13:16:21;15.77;;;7.93;;
66870;SDS011;53780;44.998;9.926;2023-02-28T13:19:26;15.38;;;8.07;;
66870;SDS011;53780;44.998;9.926;2023-02-28T13:22:47;16.95;;;7.97;;
66870;SDS011;53780;44.998;9.926;2023-02-28T13:25:53;15.90;;;8.13;;
66870;SDS011;53780;44.998;9.926;2023-02-28T13:28:58;15.10;;;7.77;;
66870;SDS011;53780;44.998;9.926;2023-02-28T13:35:35;16.27;;;8.82;;
66870;SDS011;53780;44.998;9.926;2023-02-28T13:38:41;17.60;;;8.60;;
66870;SDS011;53780;44.998;9.926;2023-02-28T13:41:47;15.75;;;8.23;;
66870;SDS011;53780;44.998;9.926;2023-02-28T13:48:15;18.33;;;8.60;;
66870;SDS011;53780;44.998;9.926;2023-02-28T14:01:41;19.73;;;8.60;;
66870;SDS011;53780;44.998;9.926;2023-02-28T14:08:20;16.83;;;8.20;;
66870;SDS011;53780;44.998;9.926;2023-02-28T14:11:32;16.95;;;8.48;;
66870;SDS011;53780;44.998;9.926;2023-02-28T14:17:50;16.83;;;7.90;;
66870;SDS011;53780;44.998;9.926;2023-02-28T14:31:19;16.13;;;8.55;;
66870;SDS011;53780;44.998;9.926;2023-02-28T14:38:19;18.55;;;8.75;;
66870;SDS011;53780;44.998;9.926;2023-02-28T14:41:34;18.50;;;8.63;;
66870;SDS011;53780;44.998;9.926;2023-02-28T14:44:42;18.90;;;8.27;;
66870;SDS011;53780;44.998;9.926;2023-02-28T14:47:57;22.17;;;9.57;;
66870;SDS011;53780;44.998;9.926;2023-02-28T14:51:02;18.23;;;8.70;;
66870;SDS011;53780;44.998;9.926;2023-02-28T14:54:07;18.45;;;9.27;;
66870;SDS011;53780;44.998;9.926;2023-02-28T14:57:25;18.42;;;9.43;;
66870;SDS011;53780;44.998;9.926;2023-02-28T15:00:30;18.63;;;8.70;;
66870;SDS011;53780;44.998;9.926;2023-02-28T15:03:36;21.50;;;9.45;;
66870;SDS011;53780;44.998;9.926;2023-02-28T15:06:42;19.57;;;9.13;;
66870;SDS011;53780;44.998;9.926;2023-02-28T15:09:46;22.35;;;8.98;;
66870;SDS011;53780;44.998;9.926;2023-02-28T15:12:52;18.40;;;9.02;;
66870;SDS011;53780;44.998;9.926;2023-02-28T15:16:03;19.60;;;8.95;;
66870;SDS011;53780;44.998;9.926;2023-02-28T15:22:19;22.37;;;9.63;;
66870;SDS011;53780;44.998;9.926;2023-02-28T15:25:31;18.92;;;9.00;;
66870;SDS011;53780;44.998;9.926;2023-02-28T15:28:35;19.15;;;8.93;;
66870;SDS011;53780;44.998;9.926;2023-02-28T15:31:40;18.30;;;8.80;;
66870;SDS011;53780;44.998;9.926;2023-02-28T15:34:47;19.35;;;9.35;;
66870;SDS011;53780;44.998;9.926;2023-02-28T15:40:56;19.00;;;8.63;;
66870;SDS011;53780;44.998;9.926;2023-02-28T15:47:38;18.77;;;8.88;;
66870;SDS011;53780;44.998;9.926;2023-02-28T15:50:42;17.88;;;8.73;;
66870;SDS011;53780;44.998;9.926;2023-02-28T15:54:00;18.50;;;8.70;;
66870;SDS011;53780;44.998;9.926;2023-02-28T15:57:21;20.05;;;9.55;;
66870;SDS011;53780;44.998;9.926;2023-02-28T16:00:29;22.42;;;9.32;;
66870;SDS011;53780;44.998;9.926;2023-02-28T16:03:38;17.63;;;8.55;;
66870;SDS011;53780;44.998;9.926;2023-02-28T16:06:44;21.35;;;9.48;;
66870;SDS011;53780;44.998;9.926;2023-02-28T16:09:55;20.70;;;9.37;;
66870;SDS011;53780;44.998;9.926;2023-02-28T16:12:59;21.73;;;9.65;;
66870;SDS011;53780;44.998;9.926;2023-02-28T16:16:06;19.30;;;9.40;;
66870;SDS011;53780;44.998;9.926;2023-02-28T16:19:10;26.08;;;9.10;;
66870;SDS011;53780;44.998;9.926;2023-02-28T16:22:14;19.10;;;9.35;;
66870;SDS011;53780;44.998;9.926;2023-02-28T16:25:19;20.00;;;9.13;;
66870;SDS011;53780;44.998;9.926;2023-02-28T16:28:30;18.42;;;8.52;;
66870;SDS011;53780;44.998;9.926;2023-02-28T16:31:37;23.15;;;9.55;;
66870;SDS011;53780;44.998;9.926;2023-02-28T16:34:42;19.70;;;8.90;;
66870;SDS011;53780;44.998;9.926;2023-02-28T16:37:47;20.40;;;9.43;;
66870;SDS011;53780;44.998;9.926;2023-02-28T16:40:51;21.20;;;10.10;;
66870;SDS011;53780;44.998;9.926;2023-02-28T16:43:58;21.20;;;9.75;;
66870;SDS011;53780;44.998;9.926;2023-02-28T16:47:03;20.65;;;9.75;;
66870;SDS011;53780;44.998;9.926;2023-02-28T16:53:41;21.50;;;9.50;;
66870;SDS011;53780;44.998;9.926;2023-02-28T16:56:46;22.07;;;9.43;;
66870;SDS011;53780;44.998;9.926;2023-02-28T16:59:51;20.52;;;9.57;;
66870;SDS011;53780;44.998;9.926;2023-02-28T17:02:55;21.45;;;9.93;;
66870;SDS011;53780;44.998;9.926;2023-02-28T17:05:59;20.88;;;9.93;;
66870;SDS011;53780;44.998;9.926;2023-02-28T17:09:03;24.83;;;9.90;;
66870;SDS011;53780;44.998;9.926;2023-02-28T17:12:08;23.60;;;10.53;;
66870;SDS011;53780;44.998;9.926;2023-02-28T17:15:13;22.30;;;9.70;;
66870;SDS011;53780;44.998;9.926;2023-02-28T17:18:18;26.45;;;10.18;;
66870;SDS011;53780;44.998;9.926;2023-02-28T17:21:24;27.60;;;10.43;;
66870;SDS011;53780;44.998;9.926;2023-02-28T17:24:28;26.88;;;11.48;;
66870;SDS011;53780;44.998;9.926;2023-02-28T17:27:32;31.23;;;12.47;;
66870;SDS011;53780;44.998;9.926;2023-02-28T17:30:35;27.50;;;12.88;;
66870;SDS011;53780;44.998;9.926;2023-02-28T17:33:40;27.92;;;12.85;;
66870;SDS011;53780;44.998;9.926;2023-02-28T17:36:45;39.65;;;18.42;;
66870;SDS011;53780;44.998;9.926;2023-02-28T17:39:50;28.20;;;11.90;;
66870;SDS011;53780;44.998;9.926;2023-02-28T17:42:54;37.43;;;15.67;;
66870;SDS011;53780;44.998;9.926;2023-02-28T17:46:00;65.78;;;31.50;;
66870;SDS011;53780;44.998;9.926;2023-02-28T17:49:03;86.40;;;33.58;;
66870;SDS011;53780;44.998;9.926;2023-02-28T17:52:08;104.07;;;38.05;;
66870;SDS011;53780;44.998;9.926;2023-02-28T17:55:12;104.50;;;36.97;;
66870;SDS011;53780;44.998;9.926;2023-02-28T17:58:16;37.53;;;15.90;;
66870;SDS011;53780;44.998;9.926;2023-02-28T18:01:22;26.73;;;11.73;;
66870;SDS011;53780;44.998;9.926;2023-02-28T18:04:29;25.27;;;11.10;;
66870;SDS011;53780;44.998;9.926;2023-02-28T18:07:33;23.65;;;11.15;;
66870;SDS011;53780;44.998;9.926;2023-02-28T18:10:37;25.73;;;11.07;;
66870;SDS011;53780;44.998;9.926;2023-02-28T18:13:41;27.40;;;10.93;;
66870;SDS011;53780;44.998;9.926;2023-02-28T18:16:45;25.98;;;11.38;;
66870;SDS011;53780;44.998;9.926;2023-02-28T18:19:49;26.42;;;11.10;;
66870;SDS011;53780;44.998;9.926;2023-02-28T18:22:52;24.17;;;10.73;;
66870;SDS011;53780;44.998;9.926;2023-02-28T18:25:56;28.35;;;12.57;;
66870;SDS011;53780;44.998;9.926;2023-02-28T18:29:01;30.80;;;14.30;;
66870;SDS011;53780;44.998;9.926;2023-02-28T18:32:05;30.52;;;13.95;;
66870;SDS011;53780;44.998;9.926;2023-02-28T18:35:09;27.20;;;11.98;;
66870;SDS011;53780;44.998;9.926;2023-02-28T18:38:14;24.48;;;11.40;;
66870;SDS011;53780;44.998;9.926;2023-02-28T18:41:21;24.90;;;10.73;;
66870;SDS011;53780;44.998;9.926;2023-02-28T18:44:25;25.17;;;10.83;;
66870;SDS011;53780;44.998;9.926;2023-02-28T18:47:29;26.55;;;11.50;;
66870;SDS011;53780;44.998;9.926;2023-02-28T18:50:33;29.55;;;12.38;;
66870;SDS011;53780;44.998;9.926;2023-02-28T18:53:41;32.47;;;12.85;;
66870;SDS011;53780;44.998;9.926;2023-02-28T18:56:46;27.50;;;12.60;;
66870;SDS011;53780;44.998;9.926;2023-02-28T18:59:50;31.47;;;14.20;;
66870;SDS011;53780;44.998;9.926;2023-02-28T19:02:54;36.40;;;15.98;;
66870;SDS011;53780;44.998;9.926;2023-02-28T19:05:59;39.28;;;18.95;;
66870;SDS011;53780;44.998;9.926;2023-02-28T19:09:03;52.05;;;22.05;;
66870;SDS011;53780;44.998;9.926;2023-02-28T19:12:08;43.67;;;18.23;;
66870;SDS011;53780;44.998;9.926;2023-02-28T19:15:12;38.20;;;17.13;;
66870;SDS011;53780;44.998;9.926;2023-02-28T19:18:16;38.22;;;16.80;;
66870;SDS011;53780;44.998;9.926;2023-02-28T19:21:20;32.65;;;14.55;;
66870;SDS011;53780;44.998;9.926;2023-02-28T19:24:26;32.42;;;12.70;;
66870;SDS011;53780;44.998;9.926;2023-02-28T19:27:30;32.83;;;13.70;;
66870;SDS011;53780;44.998;9.926;2023-02-28T19:30:35;43.33;;;18.90;;
66870;SDS011;53780;44.998;9.926;2023-02-28T19:33:39;63.88;;;25.52;;
66870;SDS011;53780;44.998;9.926;2023-02-28T19:36:43;44.30;;;19.58;;
66870;SDS011;53780;44.998;9.926;2023-02-28T19:39:48;35.92;;;15.45;;
66870;SDS011;53780;44.998;9.926;2023-02-28T19:42:52;39.72;;;18.20;;
66870;SDS011;53780;44.998;9.926;2023-02-28T19:45:56;33.53;;;15.50;;
66870;SDS011;53780;44.998;9.926;2023-02-28T19:49:00;35.45;;;16.13;;
66870;SDS011;53780;44.998;9.926;2023-02-28T19:52:04;41.00;;;18.40;;
66870;SDS011;53780;44.998;9.926;2023-02-28T19:55:09;34.40;;;15.43;;
66870;SDS011;53780;44.998;9.926;2023-02-28T19:58:13;31.63;;;13.75;;
66870;SDS011;53780;44.998;9.926;2023-02-28T20:01:18;28.73;;;13.07;;
66870;SDS011;53780;44.998;9.926;2023-02-28T20:04:23;36.90;;;15.25;;
66870;SDS011;53780;44.998;9.926;2023-02-28T20:07:28;73.03;;;33.13;;
66870;SDS011;53780;44.998;9.926;2023-02-28T20:10:34;55.15;;;27.63;;
66870;SDS011;53780;44.998;9.926;2023-02-28T20:13:38;61.38;;;30.65;;
66870;SDS011;53780;44.998;9.926;2023-02-28T20:16:43;55.37;;;28.10;;
66870;SDS011;53780;44.998;9.926;2023-02-28T20:19:48;44.08;;;22.42;;
66870;SDS011;53780;44.998;9.926;2023-02-28T20:22:52;48.88;;;24.65;;
66870;SDS011;53780;44.998;9.926;2023-02-28T20:26:00;29.95;;;15.50;;
66870;SDS011;53780;44.998;9.926;2023-02-28T20:29:05;30.95;;;14.23;;
66870;SDS011;53780;44.998;9.926;2023-02-28T20:32:10;26.83;;;12.60;;
66870;SDS011;53780;44.998;9.926;2023-02-28T20:35:15;35.70;;;17.38;;
66870;SDS011;53780;44.998;9.926;2023-02-28T20:38:19;36.45;;;17.80;;
66870;SDS011;53780;44.998;9.926;2023-02-28T20:41:23;31.58;;;16.33;;
66870;SDS011;53780;44.998;9.926;2023-02-28T20:44:27;29.77;;;14.75;;
66870;SDS011;53780;44.998;9.926;2023-02-28T20:47:31;30.17;;;13.13;;
66870;SDS011;53780;44.998;9.926;2023-02-28T20:50:35;28.67;;;12.63;;
66870;SDS011;53780;44.998;9.926;2023-02-28T20:53:40;30.25;;;14.02;;
66870;SDS011;53780;44.998;9.926;2023-02-28T20:56:43;29.50;;;13.60;;
66870;SDS011;53780;44.998;9.926;2023-02-28T20:59:48;30.00;;;13.13;;
66870;SDS011;53780;44.998;9.926;2023-02-28T21:02:52;26.23;;;12.60;;